Time;durP1;ratioP1;P1;durP2;ratioP2;P2;SDS_P1;SDS_P2;PMS_P1;PMS_P2;Temp;Humidity;BMP_temperature;BMP_pressure;BME280_temperature;BME280_humidity;BME280_pressure;Samples;Min_cycle;Max_cycle;Signal;HPM_P1;HPM_P2
2021/12/23 00:01:01;;;;;;;158.10;68.20;;;;;;;-5.99;81.01;99363.02;420313;1310;108982;-40
2021/12/23 00:11:05;;;;;;;155.10;67.50;;;;;;;-6.06;80.93;99351.30;421722;1310;98057;-42
2021/12/23 00:31:34;;;;;;;171.90;70.80;;;;;;;-6.14;81.16;99329.91;421526;1309;107726;-42
2021/12/23 00:41:43;;;;;;;172.70;68.10;;;;;;;-6.25;81.22;99329.11;420517;1309;98082;-41
2021/12/23 00:51:47;;;;;;;166.00;70.70;;;;;;;-6.34;81.34;99320.52;421690;1309;108968;-40
2021/12/23 01:24:03;;;;;;;158.30;67.70;;;;;;;-6.55;81.43;99303.42;421424;1309;109096;-42
2021/12/23 01:34:08;;;;;;;156.20;65.40;;;;;;;-6.62;81.33;99289.70;421550;1309;97966;-41
2021/12/23 01:44:12;;;;;;;160.30;67.50;;;;;;;-6.73;81.41;99280.64;421580;1309;108811;-40
2021/12/23 01:54:15;;;;;;;145.90;65.50;;;;;;;-6.81;81.53;99267.00;420408;1310;97977;-40
2021/12/23 02:04:19;;;;;;;133.80;60.40;;;;;;;-6.81;81.70;99252.92;421593;1309;111217;-42
2021/12/23 02:14:23;;;;;;;137.30;61.10;;;;;;;-6.83;81.66;99237.95;421913;1299;108851;-40
2021/12/23 02:24:27;;;;;;;144.50;62.70;;;;;;;-6.87;81.83;99225.73;421150;1310;98607;-40
2021/12/23 02:34:55;;;;;;;139.80;59.50;;;;;;;-6.93;81.92;99220.84;421292;1310;109605;-40
2021/12/23 02:44:59;;;;;;;132.80;56.90;;;;;;;-6.95;81.93;99212.40;420243;1312;97547;-40
2021/12/23 02:55:07;;;;;;;134.50;59.40;;;;;;;-6.97;81.90;99193.66;420428;1312;110124;-40
2021/12/23 03:05:10;;;;;;;141.50;59.80;;;;;;;-7.02;81.99;99175.55;420947;1312;108588;-41
2021/12/23 03:15:14;;;;;;;135.60;59.90;;;;;;;-7.09;82.19;99159.37;421296;1311;97961;-42
2021/12/23 03:25:18;;;;;;;127.30;56.90;;;;;;;-7.11;82.24;99147.54;421210;1310;109003;-40
2021/12/23 03:35:21;;;;;;;121.30;54.40;;;;;;;-7.12;82.20;99137.46;421123;1310;97949;-41
2021/12/23 03:45:26;;;;;;;122.30;51.00;;;;;;;-7.09;82.15;99122.23;421131;1312;111147;-40
2021/12/23 03:55:30;;;;;;;117.80;52.50;;;;;;;-7.09;82.17;99113.69;420362;1312;109054;-42
2021/12/23 04:05:37;;;;;;;103.40;47.90;;;;;;;-7.07;82.26;99110.27;421178;1312;97072;-42
2021/12/23 04:15:41;;;;;;;102.10;45.50;;;;;;;-7.09;82.18;99100.67;421004;1309;109019;-41
2021/12/23 04:25:44;;;;;;;114.00;51.50;;;;;;;-7.17;82.20;99081.32;421092;1309;98230;-42
2021/12/23 04:35:48;;;;;;;106.50;52.50;;;;;;;-7.19;82.19;99067.73;421128;1309;111254;-40
2021/12/23 04:45:52;;;;;;;122.30;53.80;;;;;;;-7.17;82.14;99055.41;420568;1310;108788;-41
2021/12/23 04:55:57;;;;;;;115.70;53.40;;;;;;;-7.18;82.15;99047.60;421045;1309;98524;-43
2021/12/23 05:06:01;;;;;;;118.30;48.60;;;;;;;-7.15;82.34;99036.91;421046;1309;107941;-41
2021/12/23 05:16:05;;;;;;;105.40;48.70;;;;;;;-7.10;82.34;99017.56;421116;1309;96694;-41
2021/12/23 05:26:09;;;;;;;114.60;51.40;;;;;;;-7.05;82.42;98996.68;421391;1312;111177;-40
2021/12/23 05:36:13;;;;;;;95.30;44.70;;;;;;;-6.97;82.29;98982.92;421294;1309;108808;-40
2021/12/23 05:46:16;;;;;;;88.70;42.60;;;;;;;-6.82;82.49;98979.10;421112;1309;97894;-40
2021/12/23 05:56:20;;;;;;;84.50;37.10;;;;;;;-6.69;82.33;98964.79;421149;1312;107917;-40
2021/12/23 06:06:24;;;;;;;83.70;39.60;;;;;;;-6.59;82.26;98967.94;421072;1311;97961;-42
2021/12/23 06:16:31;;;;;;;76.30;37.30;;;;;;;-6.45;82.38;98958.65;420369;1312;109657;-40
2021/12/23 06:26:35;;;;;;;65.70;35.90;;;;;;;-6.34;82.08;98951.36;421389;1310;108890;-42
2021/12/23 06:36:40;;;;;;;87.50;40.50;;;;;;;-6.30;82.08;98948.08;421534;1312;97069;-40
2021/12/23 06:46:43;;;;;;;80.60;37.00;;;;;;;-6.30;82.13;98941.91;421662;1310;108828;-39
2021/12/23 06:56:47;;;;;;;77.10;33.70;;;;;;;-6.22;82.04;98924.87;421421;1310;97975;-41
2021/12/23 07:17:07;;;;;;;83.70;38.80;;;;;;;-5.95;81.85;98909.71;421272;1312;107852;-40
2021/12/23 07:27:11;;;;;;;90.90;44.50;;;;;;;-6.05;81.54;98909.80;421503;1312;96726;-42
2021/12/23 07:37:15;;;;;;;85.30;42.40;;;;;;;-5.99;81.56;98900.61;421375;1312;108646;-41
2021/12/23 07:47:18;;;;;;;101.70;45.20;;;;;;;-5.81;81.53;98902.13;421422;1313;97958;-40
2021/12/23 07:57:22;;;;;;;106.30;45.40;;;;;;;-5.60;81.47;98894.11;421421;1309;111801;-40
2021/12/23 08:07:26;;;;;;;105.40;48.90;;;;;;;-5.40;81.33;98879.60;421410;1313;108770;-42
2021/12/23 08:17:30;;;;;;;86.20;44.60;;;;;;;-5.16;81.24;98862.73;421328;1312;97940;-40
2021/12/23 08:27:37;;;;;;;82.80;42.70;;;;;;;-4.95;81.12;98851.52;421481;1312;108955;-41
2021/12/23 08:37:49;;;;;;;90.90;41.70;;;;;;;-4.69;81.03;98825.46;421258;1309;98225;-40
2021/12/23 08:47:56;;;;;;;62.30;31.10;;;;;;;-4.41;80.99;98801.73;421587;1313;111236;-40
2021/12/23 08:58:03;;;;;;;59.60;28.40;;;;;;;-3.80;80.92;98776.60;421349;1313;108929;-40
2021/12/23 09:08:09;;;;;;;55.20;27.60;;;;;;;-3.42;80.17;98767.38;421135;1309;98432;-40
2021/12/23 09:18:13;;;;;;;44.80;24.30;;;;;;;-3.31;79.98;98757.22;421275;1309;108891;-41
2021/12/23 09:38:27;;;;;;;58.10;25.60;;;;;;;-3.09;79.51;98724.01;421328;1313;111103;-40
2021/12/23 09:58:37;;;;;;;92.00;38.50;;;;;;;-2.99;78.92;98695.52;421568;1312;96992;-40
2021/12/23 10:08:46;;;;;;;72.60;34.00;;;;;;;-2.99;79.03;98680.93;421584;1316;97945;-41
2021/12/23 10:39:37;;;;;;;53.70;25.80;;;;;;;-2.93;78.16;98587.90;421292;1313;107936;-41
2021/12/23 10:49:47;;;;;;;59.00;24.80;;;;;;;-2.78;77.58;98567.47;420286;1312;97949;-42
2021/12/23 10:59:50;;;;;;;;;;;;;;;-2.68;77.76;98544.42;420252;1312;111317;-40
2021/12/23 12:01:04;;;;;;;61.80;25.50;;;;;;;-2.28;77.43;98398.22;421465;1315;109107;-42
2021/12/23 12:21:20;;;;;;;53.90;25.30;;;;;;;-2.30;77.22;98359.89;420549;1316;111097;-40
2021/12/23 12:31:26;;;;;;;35.80;18.60;;;;;;;-2.27;76.92;98346.36;421131;1313;108868;-41
2021/12/23 12:41:36;;;;;;;44.40;21.90;;;;;;;-2.14;77.20;98341.50;421357;1315;98626;-40
2021/12/23 12:51:44;;;;;;;48.90;25.20;;;;;;;-2.06;77.34;98329.33;421431;1315;107823;-40
2021/12/23 13:01:52;;;;;;;55.80;25.60;;;;;;;-2.09;76.77;98300.66;421344;1315;108972;-41
2021/12/23 13:22:06;;;;;;;38.50;20.80;;;;;;;-2.01;76.98;98266.67;420327;1315;109071;-40
2021/12/23 13:32:13;;;;;;;50.60;23.60;;;;;;;-1.99;76.94;98252.94;420969;1315;97418;-40
2021/12/23 13:42:16;;;;;;;64.10;30.30;;;;;;;-2.06;77.06;98225.09;421339;1315;113112;-41
2021/12/23 13:52:23;;;;;;;67.00;27.40;;;;;;;-2.13;77.28;98215.41;421167;1315;96817;-40
2021/12/23 14:02:28;;;;;;;50.00;23.10;;;;;;;-2.18;77.35;98187.91;420499;1315;98588;-40
2021/12/23 14:12:44;;;;;;;42.40;22.90;;;;;;;-2.12;77.38;98174.18;420477;1312;110953;-40
2021/12/23 14:33:14;;;;;;;58.20;26.40;;;;;;;-2.14;77.55;98152.83;420740;1316;98006;-41
2021/12/23 14:43:18;;;;;;;62.90;27.60;;;;;;;-2.19;77.80;98146.27;420449;1313;111844;-41
2021/12/23 14:53:22;;;;;;;47.10;19.60;;;;;;;-2.23;77.86;98127.11;420689;1310;97942;-40
2021/12/23 15:03:30;;;;;;;32.30;16.70;;;;;;;-2.12;77.81;98096.08;420780;1310;97607;-40
2021/12/23 15:13:35;;;;;;;40.20;20.40;;;;;;;-1.93;77.77;98069.50;416582;1310;5656332;-40
2021/12/23 15:23:42;;;;;;;46.50;20.90;;;;;;;-1.83;77.69;98061.14;420802;1310;109028;-40
2021/12/23 15:43:48;;;;;;;40.70;19.20;;;;;;;-1.84;77.63;98004.05;420587;1312;97910;-39
2021/12/23 15:53:52;;;;;;;30.70;15.70;;;;;;;-1.80;77.20;97990.58;420688;1310;108543;-40
2021/12/23 16:03:57;;;;;;;32.60;18.00;;;;;;;-1.73;77.39;97967.55;420535;1312;98209;-40
2021/12/23 16:14:00;;;;;;;42.00;21.80;;;;;;;-1.74;77.71;97959.02;420538;1309;108759;-40
2021/12/23 16:24:07;;;;;;;50.40;23.40;;;;;;;-1.81;77.67;97942.02;420915;1310;98083;-40
2021/12/23 16:34:10;;;;;;;46.70;21.10;;;;;;;-1.88;77.49;97894.70;420586;1311;96792;-40
2021/12/23 16:44:14;;;;;;;37.70;18.40;;;;;;;-1.84;77.05;97867.73;420610;1310;96677;-40
2021/12/23 16:54:18;;;;;;;44.20;21.70;;;;;;;-1.76;77.29;97862.83;420722;1312;108883;-43
2021/12/23 17:04:22;;;;;;;55.40;25.30;;;;;;;-1.76;77.27;97869.20;420511;1312;97641;-40
2021/12/23 17:14:29;;;;;;;54.90;26.50;;;;;;;-1.81;77.38;97859.91;420738;1310;97946;-40
2021/12/23 17:24:34;;;;;;;51.20;25.40;;;;;;;-1.84;77.14;97868.26;420698;1312;108898;-41
2021/12/23 17:34:38;;;;;;;46.10;21.00;;;;;;;-1.79;77.36;97870.42;420453;1315;98037;-41
2021/12/23 17:44:42;;;;;;;67.60;30.20;;;;;;;-1.67;77.49;97864.09;420625;1310;97939;-40
2021/12/23 17:54:53;;;;;;;67.10;31.20;;;;;;;-1.69;77.71;97851.17;420680;1311;106253;-42
2021/12/23 18:15:01;;;;;;;41.30;18.80;;;;;;;-1.89;78.28;97820.69;420385;1312;98284;-41
2021/12/23 18:25:06;;;;;;;36.60;19.70;;;;;;;-1.83;78.45;97813.21;420333;1310;108981;-39
2021/12/23 18:35:27;;;;;;;54.60;24.50;;;;;;;-1.75;78.69;97800.49;420545;1312;96654;-40
2021/12/23 18:45:32;;;;;;;62.70;27.40;;;;;;;-1.66;78.40;97779.98;420817;1312;111354;-44
2021/12/23 18:55:45;;;;;;;40.30;18.40;;;;;;;-1.64;78.13;97755.39;420936;1310;100327;-40
2021/12/23 19:16:13;;;;;;;46.50;21.80;;;;;;;-1.54;78.20;97710.48;420823;1312;111430;-42
2021/12/23 19:26:17;;;;;;;57.50;28.20;;;;;;;-1.59;78.09;97691.07;420694;1310;106931;-40
2021/12/23 19:36:23;;;;;;;61.10;26.00;;;;;;;-1.65;77.90;97670.83;420648;1310;97963;-40
2021/12/23 19:56:31;;;;;;;56.30;26.50;;;;;;;-1.57;77.88;97640.33;420442;1312;108903;-39
2021/12/23 20:06:35;;;;;;;56.50;27.60;;;;;;;-1.61;77.89;97624.53;420411;1312;98130;-39
2021/12/23 20:16:40;;;;;;;72.40;30.20;;;;;;;-1.68;77.80;97608.81;420680;1310;98086;-41
2021/12/23 20:26:49;;;;;;;44.60;24.80;;;;;;;-1.68;77.73;97599.80;420282;1310;108953;-40
2021/12/23 20:36:53;;;;;;;59.70;27.20;;;;;;;-1.61;77.86;97571.54;421006;1309;97962;-40
2021/12/23 20:46:56;;;;;;;61.80;29.20;;;;;;;-1.64;77.92;97547.35;421101;1310;108938;-41
2021/12/23 20:57:00;;;;;;;61.50;28.40;;;;;;;-1.70;77.90;97536.68;421218;1309;98622;-40
2021/12/23 21:07:03;;;;;;;49.80;26.10;;;;;;;-1.75;78.02;97527.02;421085;1311;110606;-41
2021/12/23 21:17:06;;;;;;;50.60;26.00;;;;;;;-1.73;78.10;97497.75;421214;1311;109058;-42
2021/12/23 21:37:16;;;;;;;70.80;32.50;;;;;;;-1.83;78.82;97434.52;421251;1311;98234;-39
2021/12/23 21:47:34;;;;;;;52.70;25.70;;;;;;;-1.84;78.80;97415.85;421175;1312;108757;-39
2021/12/23 21:57:37;;;;;;;39.40;22.50;;;;;;;-1.83;78.89;97395.89;420340;1312;97987;-40
2021/12/23 22:07:42;;;;;;;56.40;28.60;;;;;;;-1.88;79.09;97362.39;421114;1311;109011;-41
2021/12/23 22:17:46;;;;;;;60.30;29.80;;;;;;;-1.97;79.27;97339.28;421462;1312;96675;-41
2021/12/23 22:27:50;;;;;;;47.80;25.00;;;;;;;-2.02;79.37;97331.22;421164;1310;97995;-40
2021/12/23 22:37:54;;;;;;;38.60;22.00;;;;;;;-1.99;79.74;97306.50;421166;1310;97961;-40
2021/12/23 22:47:57;;;;;;;55.40;26.70;;;;;;;-1.96;79.86;97277.00;421294;1310;108774;-42
2021/12/23 22:58:01;;;;;;;53.10;25.60;;;;;;;-2.09;80.08;97249.77;421395;1310;97978;-40
2021/12/23 23:08:06;;;;;;;41.10;22.20;;;;;;;-2.13;80.31;97220.53;416969;1310;5747513;-40
2021/12/23 23:18:12;;;;;;;33.90;18.60;;;;;;;-2.05;80.88;97201.61;420368;1312;109089;-41
2021/12/23 23:48:32;;;;;;;40.00;20.40;;;;;;;-2.02;81.46;97147.13;421181;1309;108918;-42
2021/12/23 23:58:39;;;;;;;34.90;20.10;;;;;;;-1.97;82.01;97132.73;421176;1312;97958;-40
